createdAt,value
2019-04-07T00:00:26.758Z,94987.06
2019-04-07T00:02:57.017Z,94990.65
2019-04-07T00:05:24.721Z,94995.30
2019-04-07T00:07:54.229Z,94984.45
2019-04-07T00:10:21.871Z,94983.58
2019-04-07T00:12:49.854Z,94988.63
2019-04-07T00:15:18.654Z,94988.41
2019-04-07T00:17:46.174Z,94987.52
2019-04-07T00:20:13.969Z,94988.38
2019-04-07T00:22:41.503Z,94980.39
2019-04-07T00:25:09.309Z,94982.17
2019-04-07T00:27:37.233Z,94975.00
2019-04-07T00:30:05.485Z,94976.23
2019-04-07T00:32:33.811Z,94977.31
2019-04-07T00:35:01.685Z,94978.68
2019-04-07T00:37:29.567Z,94975.98
2019-04-07T00:39:57.784Z,94975.63
2019-04-07T00:42:25.880Z,94975.25
2019-04-07T00:44:54.201Z,94980.61
2019-04-07T00:47:23.423Z,94978.14
2019-04-07T00:49:51.260Z,94977.97
2019-04-07T00:52:21.497Z,94979.80
2019-04-07T00:54:49.050Z,94980.70
2019-04-07T00:57:17.195Z,94985.39
2019-04-07T00:59:45.243Z,94988.66
2019-04-07T01:02:13.553Z,94981.77
2019-04-07T01:04:40.998Z,94981.47
2019-04-07T01:07:09.210Z,94981.59
2019-04-07T01:09:37.754Z,94977.32
2019-04-07T01:12:06.075Z,94976.05
2019-04-07T01:14:34.046Z,94987.69
2019-04-07T01:17:01.723Z,94987.48
2019-04-07T01:19:30.269Z,94983.67
2019-04-07T01:22:00.013Z,94986.28
2019-04-07T01:24:28.915Z,94989.53
2019-04-07T01:26:56.747Z,94990.98
2019-04-07T01:29:25.526Z,94986.28
2019-04-07T01:31:54.774Z,94982.40
2019-04-07T01:34:23.117Z,94982.00
2019-04-07T01:36:51.603Z,94983.13
2019-04-07T01:39:19.468Z,94988.89
2019-04-07T01:42:06.701Z,94986.29
2019-04-07T01:45:06.118Z,94985.80
2019-04-07T01:47:43.398Z,94989.75
2019-04-07T01:50:21.075Z,94979.17
2019-04-07T01:53:08.869Z,94987.20
2019-04-07T01:55:55.327Z,94991.38
2019-04-07T01:58:33.932Z,94988.77
2019-04-07T02:01:15.829Z,94992.89
2019-04-07T02:04:01.781Z,94998.04
2019-04-07T02:07:01.965Z,94990.34
2019-04-07T02:09:40.263Z,94990.55
2019-04-07T02:12:16.127Z,94996.73
2019-04-07T02:15:02.328Z,94999.61
2019-04-07T02:17:38.922Z,94999.13
2019-04-07T02:20:12.700Z,95000.30
2019-04-07T02:22:59.867Z,94995.98
2019-04-07T02:25:42.829Z,95003.17
2019-04-07T02:28:38.774Z,95000.47
2019-04-07T02:31:13.699Z,95002.89
2019-04-07T02:33:58.174Z,95010.05
2019-04-07T02:36:50.825Z,95013.91
2019-04-07T02:39:46.344Z,95015.63
2019-04-07T02:42:30.489Z,95013.36
2019-04-07T02:45:15.752Z,95009.61
2019-04-07T02:48:12.409Z,95010.58
2019-04-07T02:51:02.969Z,95008.67
2019-04-07T02:54:06.773Z,95017.56
2019-04-07T02:56:54.636Z,95015.25
2019-04-07T02:59:46.466Z,95015.16
2019-04-07T03:02:39.339Z,95016.05
2019-04-07T03:05:26.828Z,95005.78
2019-04-07T03:08:19.710Z,95010.97
2019-04-07T03:11:07.565Z,95006.76
2019-04-07T03:13:54.253Z,95008.67
2019-04-07T03:16:29.292Z,95011.27
2019-04-07T03:19:05.403Z,95011.36
2019-04-07T03:21:43.164Z,95015.63
2019-04-07T03:24:28.953Z,95021.61
2019-04-07T03:27:28.377Z,95024.25
2019-04-07T03:30:09.008Z,95023.40
2019-04-07T03:32:57.943Z,95021.88
2019-04-07T03:35:55.442Z,95023.47
2019-04-07T03:38:46.084Z,95026.41
2019-04-07T03:41:33.347Z,95028.21
2019-04-07T03:44:11.928Z,95020.76
2019-04-07T03:47:14.421Z,95029.92
2019-04-07T03:49:50.967Z,95025.73
2019-04-07T03:52:28.754Z,95018.55
2019-04-07T03:55:24.652Z,95027.77
2019-04-07T03:58:10.556Z,95026.16
2019-04-07T04:01:13.795Z,95033.53
2019-04-07T04:03:48.617Z,95028.92
2019-04-07T04:06:38.941Z,95028.34
2019-04-07T04:09:18.041Z,95028.48
2019-04-07T04:11:53.715Z,95026.38
2019-04-07T04:14:33.449Z,95037.34
2019-04-07T04:17:02.111Z,95039.22
2019-04-07T04:19:30.237Z,95041.81
2019-04-07T04:21:58.873Z,95042.22
2019-04-07T04:24:28.342Z,95041.25
2019-04-07T04:26:57.067Z,95044.53
2019-04-07T04:29:24.883Z,95045.99
2019-04-07T04:31:52.980Z,95052.80
2019-04-07T04:34:23.820Z,95054.67
2019-04-07T04:36:51.784Z,95055.72
2019-04-07T04:39:21.218Z,95052.70
2019-04-07T04:41:49.136Z,95051.19
2019-04-07T04:44:16.954Z,95053.79
2019-04-07T04:46:45.320Z,95051.97
2019-04-07T04:49:13.555Z,95053.84
2019-04-07T04:51:42.556Z,95061.11
2019-04-07T04:54:11.014Z,95061.00
2019-04-07T04:56:39.438Z,95067.11
2019-04-07T04:59:07.504Z,95070.98
2019-04-07T05:01:36.119Z,95063.13
2019-04-07T05:04:03.976Z,95062.28
2019-04-07T05:06:31.741Z,95069.02
2019-04-07T05:08:59.294Z,95070.48
2019-04-07T05:11:26.985Z,95077.61
2019-04-07T05:13:56.768Z,95079.64
2019-04-07T05:16:24.739Z,95075.45
2019-04-07T05:18:54.102Z,95078.39
2019-04-07T05:21:21.719Z,95069.59
2019-04-07T05:23:49.257Z,95086.43
2019-04-07T05:26:16.731Z,95081.70
2019-04-07T05:28:45.188Z,95084.22
2019-04-07T05:31:15.311Z,95084.42
2019-04-07T05:33:43.263Z,95091.78
2019-04-07T05:36:10.653Z,95088.09
2019-04-07T05:38:38.724Z,95094.42
2019-04-07T05:41:07.565Z,95090.97
2019-04-07T05:43:35.484Z,95091.66
2019-04-07T05:46:05.902Z,95099.06
2019-04-07T05:48:33.751Z,95100.97
2019-04-07T05:51:03.400Z,95102.61
2019-04-07T05:53:31.229Z,95099.11
2019-04-07T05:55:58.690Z,95097.92
2019-04-07T05:58:26.815Z,95086.93
2019-04-07T06:00:54.955Z,95083.77
2019-04-07T06:03:22.824Z,95080.27
2019-04-07T06:05:51.334Z,95087.41
2019-04-07T06:08:27.664Z,95083.11
2019-04-07T06:10:50.011Z,95081.81
2019-04-07T06:13:17.700Z,95076.55
2019-04-07T06:15:45.765Z,95075.98
2019-04-07T06:18:13.776Z,95070.70
2019-04-07T06:20:44.857Z,95072.66
2019-04-07T06:23:11.666Z,95072.36
2019-04-07T06:25:41.890Z,95074.04
2019-04-07T06:28:09.653Z,95074.72
2019-04-07T06:30:38.108Z,95074.37
2019-04-07T06:33:07.325Z,95083.22
2019-04-07T06:35:35.606Z,95089.09
2019-04-07T06:38:06.136Z,95088.28
2019-04-07T06:40:33.875Z,95090.14
2019-04-07T06:43:04.509Z,95088.34
2019-04-07T06:45:38.676Z,95094.12
2019-04-07T06:48:08.505Z,95095.11
2019-04-07T06:50:57.880Z,95099.33
2019-04-07T06:53:48.877Z,95101.17
2019-04-07T06:56:38.677Z,95103.80
2019-04-07T06:59:22.077Z,95108.02
2019-04-07T07:02:07.363Z,95114.41
2019-04-07T07:04:46.646Z,95113.76
2019-04-07T07:07:33.540Z,95115.89
2019-04-07T07:10:09.549Z,95123.39
2019-04-07T07:13:25.764Z,95126.75
2019-04-07T07:16:01.574Z,95125.30
2019-04-07T07:18:53.647Z,95130.77
2019-04-07T07:21:38.094Z,95126.19
2019-04-07T07:24:03.386Z,95129.80
2019-04-07T07:26:35.058Z,95130.28
2019-04-07T07:29:00.910Z,95134.20
2019-04-07T07:31:29.234Z,95136.50
2019-04-07T07:33:58.265Z,95129.44
2019-04-07T07:36:27.470Z,95127.45
2019-04-07T07:39:01.727Z,95125.45
2019-04-07T07:41:26.855Z,95121.78
2019-04-07T07:43:54.864Z,95126.70
2019-04-07T07:46:23.845Z,95125.45
2019-04-07T07:48:57.044Z,95131.72
2019-04-07T07:51:24.864Z,95129.87
2019-04-07T07:53:52.691Z,95137.59
2019-04-07T07:56:25.541Z,95139.59
2019-04-07T07:58:53.912Z,95137.27
2019-04-07T08:01:22.021Z,95139.83
2019-04-07T08:03:53.007Z,95138.11
2019-04-07T08:06:20.572Z,95142.53
2019-04-07T08:08:48.787Z,95141.91
2019-04-07T08:11:17.646Z,95135.16
2019-04-07T08:13:46.892Z,95139.91
2019-04-07T08:16:15.181Z,95138.37
2019-04-07T08:18:45.274Z,95145.02
2019-04-07T08:21:17.151Z,95150.83
2019-04-07T08:23:45.315Z,95150.30
2019-04-07T08:26:13.412Z,95154.27
2019-04-07T08:28:41.520Z,95149.80
2019-04-07T08:31:09.878Z,95155.40
2019-04-07T08:33:38.585Z,95158.18
2019-04-07T08:36:11.658Z,95153.50
2019-04-07T08:38:37.582Z,95159.66
2019-04-07T08:41:08.149Z,95155.60
2019-04-07T08:43:35.306Z,95160.47
2019-04-07T08:46:04.712Z,95162.13
2019-04-07T08:48:33.329Z,95169.88
2019-04-07T08:51:01.099Z,95164.93
2019-04-07T08:53:29.401Z,95174.06
2019-04-07T08:55:57.362Z,95176.23
2019-04-07T08:58:28.591Z,95172.42
2019-04-07T09:00:56.211Z,95174.03
2019-04-07T09:03:24.281Z,95179.42
2019-04-07T09:05:54.451Z,95174.66
2019-04-07T09:08:21.546Z,95185.77
2019-04-07T09:11:06.534Z,95180.22
2019-04-07T09:13:35.087Z,95178.73
2019-04-07T09:16:14.507Z,95180.72
2019-04-07T09:19:11.403Z,95168.99
2019-04-07T09:21:50.185Z,95173.59
2019-04-07T09:24:34.663Z,95173.74
2019-04-07T09:27:18.225Z,95163.41
2019-04-07T09:30:11.317Z,95162.61
2019-04-07T09:33:00.146Z,95161.06
2019-04-07T09:35:50.859Z,95163.55
2019-04-07T09:38:33.937Z,95168.37
2019-04-07T09:41:24.904Z,95173.30
2019-04-07T09:44:08.032Z,95166.96
2019-04-07T09:46:54.888Z,95165.55
2019-04-07T09:49:56.162Z,95175.73
2019-04-07T09:52:46.147Z,95177.19
2019-04-07T09:55:26.701Z,95182.31
2019-04-07T09:58:13.719Z,95174.24
2019-04-07T10:00:57.322Z,95172.59
2019-04-07T10:03:41.540Z,95168.99
2019-04-07T10:06:19.943Z,95170.82
2019-04-07T10:09:06.671Z,95181.19
2019-04-07T10:11:52.884Z,95180.02
2019-04-07T10:14:46.612Z,95175.22
2019-04-07T10:17:34.047Z,95181.83
2019-04-07T10:20:33.651Z,95189.28
2019-04-07T10:23:19.690Z,95181.78
2019-04-07T10:26:04.110Z,95185.03
2019-04-07T10:28:41.962Z,95188.98
2019-04-07T10:31:32.793Z,95189.16
2019-04-07T10:34:19.044Z,95187.38
2019-04-07T10:37:06.826Z,95182.56
2019-04-07T10:39:55.942Z,95186.75
2019-04-07T10:42:41.914Z,95184.38
2019-04-07T10:45:26.301Z,95179.46
2019-04-07T10:48:11.725Z,95174.48
2019-04-07T10:50:50.267Z,95179.73
2019-04-07T10:53:37.394Z,95183.30
2019-04-07T10:56:19.947Z,95177.00
2019-04-07T10:59:06.063Z,95180.03
2019-04-07T11:01:41.538Z,95181.09
2019-04-07T11:04:35.423Z,95189.39
2019-04-07T11:07:18.619Z,95173.45
2019-04-07T11:10:12.538Z,95175.98
2019-04-07T11:13:06.343Z,95170.20
2019-04-07T11:15:49.870Z,95183.61
2019-04-07T11:18:34.770Z,95177.39
2019-04-07T11:21:24.963Z,95177.33
2019-04-07T11:24:17.774Z,95175.02
2019-04-07T11:26:56.810Z,95174.57
2019-04-07T11:29:38.513Z,95167.09
2019-04-07T11:32:22.897Z,95165.80
2019-04-07T11:35:09.394Z,95159.62
2019-04-07T11:37:50.001Z,95164.02
2019-04-07T11:40:43.169Z,95168.44
2019-04-07T11:43:23.780Z,95160.33
2019-04-07T11:46:18.825Z,95162.33
2019-04-07T11:49:13.438Z,95160.97
2019-04-07T11:52:06.183Z,95160.85
2019-04-07T11:54:53.781Z,95161.23
2019-04-07T11:57:50.931Z,95165.12
2019-04-07T12:00:37.795Z,95167.04
2019-04-07T12:03:33.332Z,95167.95
2019-04-07T12:06:29.751Z,95168.98
2019-04-07T12:09:16.303Z,95169.41
2019-04-07T12:12:04.727Z,95170.72
2019-04-07T12:15:08.488Z,95166.49
2019-04-07T12:17:55.714Z,95169.30
2019-04-07T12:20:38.614Z,95166.14
2019-04-07T12:23:20.970Z,95172.25
2019-04-07T12:26:04.288Z,95164.92
2019-04-07T12:28:50.322Z,95157.88
2019-04-07T12:31:35.865Z,95163.38
2019-04-07T12:34:22.212Z,95159.27
2019-04-07T12:37:06.802Z,95157.54
2019-04-07T12:40:07.606Z,95153.17
2019-04-07T12:42:48.712Z,95153.50
2019-04-07T12:45:31.843Z,95148.25
2019-04-07T12:48:21.649Z,95140.63
2019-04-07T12:50:59.586Z,95139.70
2019-04-07T12:53:36.274Z,95144.75
2019-04-07T12:56:18.060Z,95137.38
2019-04-07T12:59:06.929Z,95141.47
2019-04-07T13:02:08.110Z,95139.93
2019-04-07T13:04:40.881Z,95144.34
2019-04-07T13:07:31.469Z,95146.05
2019-04-07T13:10:20.929Z,95143.70
2019-04-07T13:13:14.393Z,95141.61
2019-04-07T13:16:14.566Z,95132.80
2019-04-07T13:19:02.269Z,95131.20
2019-04-07T13:21:53.206Z,95135.27
2019-04-07T13:24:44.663Z,95131.80
2019-04-07T13:27:35.198Z,95131.17
2019-04-07T13:30:08.963Z,95130.55
2019-04-07T13:32:52.406Z,95143.23
2019-04-07T13:35:33.465Z,95129.28
2019-04-07T13:38:19.288Z,95123.06
2019-04-07T13:41:05.209Z,95117.63
2019-04-07T13:44:04.665Z,95132.73
2019-04-07T13:46:42.306Z,95132.83
2019-04-07T13:49:41.703Z,95130.03
2019-04-07T13:52:29.034Z,95139.67
2019-04-07T13:55:07.766Z,95135.78
2019-04-07T13:57:57.837Z,95132.30
2019-04-07T14:00:52.006Z,95133.99
2019-04-07T14:03:35.698Z,95137.72
2019-04-07T14:06:19.430Z,95138.89
2019-04-07T14:09:13.612Z,95135.09
2019-04-07T14:14:43.515Z,95137.14
2019-04-07T14:17:21.915Z,95137.23
2019-04-07T14:20:24.723Z,95140.19
2019-04-07T14:22:59.426Z,95141.52
2019-04-07T14:25:47.432Z,95135.01
2019-04-07T14:28:34.671Z,95149.52
2019-04-07T14:31:24.043Z,95146.21
2019-04-07T14:34:00.016Z,95143.08
2019-04-07T14:37:00.036Z,95149.42
2019-04-07T14:39:42.262Z,95147.35
2019-04-07T14:42:38.077Z,95153.91
2019-04-07T14:45:32.048Z,95146.13
2019-04-07T14:48:05.436Z,95149.61
2019-04-07T14:50:55.965Z,95157.26
2019-04-07T14:53:53.033Z,95158.20
2019-04-07T14:56:48.920Z,95160.16
2019-04-07T14:59:48.547Z,95154.25
2019-04-07T15:02:17.136Z,95153.92
2019-04-07T15:04:48.722Z,95148.53
2019-04-07T15:07:36.591Z,95155.17
2019-04-07T15:10:16.641Z,95150.54
2019-04-07T15:12:51.225Z,95152.21
2019-04-07T15:15:21.465Z,95151.69
2019-04-07T15:17:49.500Z,95154.51
2019-04-07T15:20:17.557Z,95149.61
2019-04-07T15:22:47.256Z,95148.09
2019-04-07T15:25:16.352Z,95146.23
2019-04-07T15:27:44.528Z,95152.65
2019-04-07T15:30:15.267Z,95150.11
2019-04-07T15:32:43.854Z,95155.31
2019-04-07T15:35:14.323Z,95156.20
2019-04-07T15:37:43.075Z,95145.51
2019-04-07T15:40:10.881Z,95157.18
2019-04-07T15:42:43.433Z,95155.23
2019-04-07T15:45:10.564Z,95146.27
2019-04-07T15:47:37.841Z,95148.02
2019-04-07T15:50:06.096Z,95148.66
2019-04-07T15:52:34.701Z,95153.75
2019-04-07T15:55:03.582Z,95155.39
2019-04-07T15:57:32.869Z,95156.80
2019-04-07T16:00:03.920Z,95154.99
2019-04-07T16:02:31.360Z,95151.17
2019-04-07T16:05:02.346Z,95161.24
2019-04-07T16:07:31.539Z,95167.01
2019-04-07T16:09:59.730Z,95161.91
2019-04-07T16:12:28.693Z,95162.47
2019-04-07T16:14:57.885Z,95155.27
2019-04-07T16:17:28.809Z,95157.22
2019-04-07T16:19:56.556Z,95162.19
2019-04-07T16:22:25.793Z,95167.58
2019-04-07T16:24:55.143Z,95161.57
2019-04-07T16:27:25.991Z,95169.26
2019-04-07T16:29:54.742Z,95166.98
2019-04-07T16:32:22.484Z,95171.88
2019-04-07T16:34:50.069Z,95172.00
2019-04-07T16:37:18.245Z,95180.84
2019-04-07T16:39:45.878Z,95175.71
2019-04-07T16:42:15.289Z,95177.06
2019-04-07T16:44:44.474Z,95184.64
2019-04-07T16:47:21.849Z,95180.77
2019-04-07T16:49:46.701Z,95176.97
2019-04-07T16:52:13.491Z,95181.80
2019-04-07T16:54:43.452Z,95173.43
2019-04-07T16:57:10.939Z,95179.22
2019-04-07T16:59:42.785Z,95182.50
2019-04-07T17:02:09.212Z,95193.33
2019-04-07T17:04:37.320Z,95191.69
2019-04-07T17:07:10.848Z,95187.07
2019-04-07T17:09:36.350Z,95189.20
2019-04-07T17:12:04.181Z,95191.13
2019-04-07T17:14:35.065Z,95189.73
2019-04-07T17:17:02.268Z,95192.36
2019-04-07T17:19:35.525Z,95196.31
2019-04-07T17:22:05.009Z,95197.13
2019-04-07T17:24:35.644Z,95207.50
2019-04-07T17:27:09.749Z,95204.06
2019-04-07T17:29:37.097Z,95211.22
2019-04-07T17:32:06.763Z,95205.75
2019-04-07T17:34:35.536Z,95209.22
2019-04-07T17:37:04.094Z,95220.05
2019-04-07T17:39:46.165Z,95224.43
2019-04-07T17:42:18.406Z,95222.62
2019-04-07T17:45:05.718Z,95223.23
2019-04-07T17:47:51.781Z,95226.94
2019-04-07T17:50:31.391Z,95228.39
2019-04-07T17:53:17.411Z,95227.31
2019-04-07T17:56:13.871Z,95230.67
2019-04-07T17:59:14.187Z,95236.13
2019-04-07T18:01:59.174Z,95246.77
2019-04-07T18:04:56.884Z,95250.44
2019-04-07T18:07:44.851Z,95253.01
2019-04-07T18:10:48.669Z,95259.17
2019-04-07T18:13:47.168Z,95262.13
2019-04-07T18:16:31.797Z,95264.61
2019-04-07T18:19:17.608Z,95265.18
2019-04-07T18:21:57.953Z,95263.72
2019-04-07T18:24:43.768Z,95266.42
2019-04-07T18:27:27.706Z,95263.19
2019-04-07T18:30:14.746Z,95273.75
2019-04-07T18:33:01.809Z,95274.73
2019-04-07T18:35:50.989Z,95279.23
2019-04-07T18:38:39.422Z,95283.20
2019-04-07T18:41:19.798Z,95282.39
2019-04-07T18:44:04.558Z,95284.06
2019-04-07T18:47:05.316Z,95287.62
2019-04-07T18:49:55.209Z,95299.48
2019-04-07T18:52:53.223Z,95298.30
2019-04-07T18:55:40.359Z,95302.81
2019-04-07T18:58:30.118Z,95304.53
2019-04-07T19:01:33.070Z,95317.45
2019-04-07T19:04:24.215Z,95317.22
2019-04-07T19:07:22.498Z,95323.17
2019-04-07T19:10:06.438Z,95325.52
2019-04-07T19:13:05.645Z,95330.70
2019-04-07T19:15:47.804Z,95329.30
2019-04-07T19:18:34.669Z,95335.89
2019-04-07T19:21:16.225Z,95342.84
2019-04-07T19:24:12.938Z,95343.39
2019-04-07T19:26:54.395Z,95348.66
2019-04-07T19:29:44.461Z,95353.77
2019-04-07T19:32:46.608Z,95368.13
2019-04-07T19:35:45.988Z,95366.22
2019-04-07T19:38:25.985Z,95370.00
2019-04-07T19:41:12.174Z,95360.11
2019-04-07T19:43:46.792Z,95348.81
2019-04-07T19:46:31.587Z,95362.85
2019-04-07T19:49:11.278Z,95379.36
2019-04-07T19:52:00.928Z,95378.86
2019-04-07T19:54:50.438Z,95372.09
2019-04-07T19:57:40.595Z,95370.12
2019-04-07T20:00:30.973Z,95365.05
2019-04-07T20:03:20.619Z,95362.62
2019-04-07T20:06:05.806Z,95358.52
2019-04-07T20:08:42.540Z,95360.14
2019-04-07T20:11:32.511Z,95360.30
2019-04-07T20:14:31.473Z,95358.00
2019-04-07T20:17:20.996Z,95358.00
2019-04-07T20:20:08.772Z,95352.23
2019-04-07T20:23:02.245Z,95352.07
2019-04-07T20:25:55.548Z,95361.30
2019-04-07T20:28:41.057Z,95363.11
2019-04-07T20:31:34.392Z,95363.46
2019-04-07T20:34:09.850Z,95360.82
2019-04-07T20:36:59.827Z,95367.73
2019-04-07T20:39:39.907Z,95371.02
2019-04-07T20:42:27.514Z,95372.30
2019-04-07T20:45:24.496Z,95374.88
2019-04-07T20:48:21.357Z,95376.16
2019-04-07T20:51:17.449Z,95377.95
2019-04-07T20:53:54.201Z,95378.36
2019-04-07T20:56:31.965Z,95380.17
2019-04-07T20:59:14.645Z,95387.32
2019-04-07T21:02:14.416Z,95392.33
2019-04-07T21:05:12.344Z,95388.31
2019-04-07T21:08:08.854Z,95391.03
2019-04-07T21:11:07.469Z,95388.97
2019-04-07T21:14:07.221Z,95393.98
2019-04-07T21:17:01.582Z,95407.06
2019-04-07T21:19:47.608Z,95418.47
2019-04-07T21:22:21.553Z,95420.63
2019-04-07T21:25:01.646Z,95425.22
2019-04-07T21:27:36.083Z,95406.45
2019-04-07T21:30:12.939Z,95411.33
2019-04-07T21:32:58.591Z,95408.28
2019-04-07T21:35:36.675Z,95405.09
2019-04-07T21:38:25.745Z,95404.27
2019-04-07T21:41:16.801Z,95408.20
2019-04-07T21:44:02.511Z,95413.98
2019-04-07T21:46:48.427Z,95408.23
2019-04-07T21:49:39.470Z,95414.44
2019-04-07T21:52:28.074Z,95414.71
2019-04-07T21:55:09.884Z,95419.41
2019-04-07T21:57:59.697Z,95424.17
2019-04-07T22:00:47.570Z,95424.06
2019-04-07T22:03:33.374Z,95427.83
2019-04-07T22:06:26.518Z,95424.47
2019-04-07T22:09:09.371Z,95436.63
2019-04-07T22:11:37.990Z,95438.91
2019-04-07T22:14:07.356Z,95439.77
2019-04-07T22:16:35.472Z,95440.16
2019-04-07T22:19:04.252Z,95435.05
2019-04-07T22:21:32.396Z,95435.74
2019-04-07T22:24:01.285Z,95429.49
2019-04-07T22:26:29.975Z,95433.40
2019-04-07T22:29:01.480Z,95440.33
2019-04-07T22:31:31.759Z,95439.15
2019-04-07T22:34:02.343Z,95435.14
2019-04-07T22:36:29.991Z,95437.95
2019-04-07T22:39:00.850Z,95435.26
2019-04-07T22:41:27.064Z,95435.03
2019-04-07T22:43:55.370Z,95436.29
2019-04-07T22:46:26.925Z,95443.02
2019-04-07T22:48:57.660Z,95437.44
2019-04-07T22:51:23.038Z,95436.87
2019-04-07T22:53:54.357Z,95442.94
2019-04-07T22:56:22.294Z,95448.61
2019-04-07T22:58:50.675Z,95451.56
2019-04-07T23:01:18.655Z,95453.53
2019-04-07T23:03:49.690Z,95456.35
2019-04-07T23:06:18.945Z,95453.66
2019-04-07T23:08:47.263Z,95461.64
2019-04-07T23:11:14.797Z,95461.77
2019-04-07T23:13:42.459Z,95456.06
2019-04-07T23:16:15.118Z,95459.30
2019-04-07T23:18:40.532Z,95455.10
2019-04-07T23:21:08.006Z,95457.47
2019-04-07T23:23:35.455Z,95455.70
2019-04-07T23:26:03.425Z,95457.10
2019-04-07T23:28:31.088Z,95457.23
2019-04-07T23:30:59.039Z,95468.98
2019-04-07T23:33:27.638Z,95469.20
2019-04-07T23:35:55.695Z,95471.13
2019-04-07T23:38:23.972Z,95467.59
2019-04-07T23:40:52.181Z,95468.24
2019-04-07T23:43:19.705Z,95465.19
2019-04-07T23:45:47.531Z,95469.69
2019-04-07T23:48:15.868Z,95465.63
2019-04-07T23:50:43.595Z,95462.58
2019-04-07T23:54:00.528Z,95458.48
2019-04-07T23:56:27.998Z,95464.52
2019-04-07T23:58:56.301Z,95465.41
